Time,TemperatureF,DewpointF,PressureIn,WindDirection,WindDirectionDegrees,WindSpeedMPH,WindSpeedGustMPH,Humidity,HourlyPrecipIn,Conditions,Clouds,dailyrainin,SoftwareType,DateUTC
2013-04-26 00:00:00,57.7,32.0,30.81,SSW,196,11.0,15.0,35,0.00,MI,SKC,0.00,Misterhouse,2013-04-26 07:00:00,
2013-04-26 00:05:00,57.7,32.0,30.81,South,171,13.0,17.0,36,0.00,MI,SKC,0.00,Misterhouse,2013-04-26 07:05:00,
2013-04-26 00:10:00,57.7,32.0,30.81,South,173,16.0,16.0,35,0.00,MI,SKC,0.00,Misterhouse,2013-04-26 07:10:00,
2013-04-26 00:15:00,57.9,32.0,30.81,South,177,14.0,14.0,35,0.00,MI,SKC,0.00,Misterhouse,2013-04-26 07:15:00,
2013-04-26 00:20:00,57.7,32.0,30.81,South,173,14.0,15.0,35,0.00,MI,SKC,0.00,Misterhouse,2013-04-26 07:20:00,
2013-04-26 00:25:00,57.6,32.0,30.81,SSE,158,17.0,17.0,35,0.00,MI,SKC,0.00,Misterhouse,2013-04-26 07:25:00,
2013-04-26 00:30:00,57.6,32.0,30.81,South,180,14.0,15.0,35,0.00,MI,SKC,0.00,Misterhouse,2013-04-26 07:30:00,
2013-04-26 00:35:00,57.6,32.0,30.81,SSE,167,14.0,14.0,35,0.00,MI,SKC,0.00,Misterhouse,2013-04-26 07:35:00,
2013-04-26 00:40:00,57.4,32.0,30.81,SSW,209,15.0,15.0,35,0.00,MI,SKC,0.00,Misterhouse,2013-04-26 07:40:00,
2013-04-26 00:45:00,57.2,32.0,30.81,SSW,199,16.0,17.0,35,0.00,MI,SKC,0.00,Misterhouse,2013-04-26 07:45:00,
2013-04-26 00:50:00,57.6,32.0,30.81,South,188,13.0,13.0,35,0.00,MI,SKC,0.00,Misterhouse,2013-04-26 07:50:00,
2013-04-26 00:55:00,57.2,32.0,30.81,SW,217,10.0,13.0,35,0.00,MI,SKC,0.00,Misterhouse,2013-04-26 07:55:00,
2013-04-26 01:00:00,57.9,32.0,30.81,SSE,155,12.0,12.0,30,0.00,MI,SKC,0.00,Misterhouse,2013-04-26 08:00:00,
2013-04-26 01:05:00,57.2,32.0,30.81,SSE,168,15.0,15.0,33,0.00,MI,SKC,0.00,Misterhouse,2013-04-26 08:05:00,
2013-04-26 01:10:00,56.7,32.0,30.81,SSW,194,10.0,10.0,36,0.00,MI,SKC,0.00,Misterhouse,2013-04-26 08:10:00,
2013-04-26 01:15:00,56.3,32.0,30.81,South,182,11.0,11.0,37,0.00,MI,SKC,0.00,Misterhouse,2013-04-26 08:15:00,
2013-04-26 01:20:00,56.3,32.0,30.81,SSW,206,11.0,11.0,36,0.00,MI,SKC,0.00,Misterhouse,2013-04-26 08:20:00,
2013-04-26 01:25:00,56.3,32.0,30.81,South,179,11.0,13.0,37,0.00,MI,SKC,0.00,Misterhouse,2013-04-26 08:25:00,
2013-04-26 01:30:00,56.3,32.0,30.81,South,187,12.0,13.0,36,0.00,MI,SKC,0.00,Misterhouse,2013-04-26 08:30:00,
2013-04-26 01:35:00,56.5,32.0,30.81,South,183,11.0,11.0,36,0.00,MI,SKC,0.00,Misterhouse,2013-04-26 08:35:00,
2013-04-26 01:40:00,56.5,32.0,30.81,South,179,11.0,15.0,36,0.00,MI,SKC,0.00,Misterhouse,2013-04-26 08:40:00,
2013-04-26 01:45:00,56.7,32.0,30.81,South,177,12.0,12.0,36,0.00,MI,SKC,0.00,Misterhouse,2013-04-26 08:45:00,
2013-04-26 01:50:00,56.5,32.0,30.81,South,169,11.0,11.0,36,0.00,MI,SKC,0.00,Misterhouse,2013-04-26 08:50:00,
2013-04-26 01:55:00,56.7,32.0,30.81,South,169,10.0,10.0,37,0.00,MI,SKC,0.00,Misterhouse,2013-04-26 08:55:00,
2013-04-26 02:00:00,56.7,32.0,30.81,South,187,9.0,9.0,36,0.00,MI,SKC,0.00,Misterhouse,2013-04-26 09:00:00,
2013-04-26 02:05:00,56.8,32.0,30.81,South,181,11.0,11.0,35,0.00,MI,SKC,0.00,Misterhouse,2013-04-26 09:05:00,
2013-04-26 02:10:00,56.8,32.0,30.81,South,175,11.0,13.0,36,0.00,MI,SKC,0.00,Misterhouse,2013-04-26 09:10:00,
2013-04-26 02:15:00,56.8,32.0,30.81,South,176,11.0,11.0,37,0.00,MI,SKC,0.00,Misterhouse,2013-04-26 09:15:00,
2013-04-26 02:20:00,56.7,32.0,30.81,SSW,212,14.0,14.0,37,0.00,MI,SKC,0.00,Misterhouse,2013-04-26 09:20:00,
2013-04-26 02:25:00,56.8,32.0,30.81,South,169,14.0,15.0,36,0.00,MI,SKC,0.00,Misterhouse,2013-04-26 09:25:00,
2013-04-26 02:30:00,56.7,32.0,30.81,SSW,200,11.0,11.0,35,0.00,MI,SKC,0.00,Misterhouse,2013-04-26 09:30:00,
2013-04-26 02:35:00,57.0,32.0,30.81,South,179,11.0,13.0,35,0.00,MI,SKC,0.00,Misterhouse,2013-04-26 09:35:00,
2013-04-26 02:40:00,57.0,32.0,30.81,South,184,7.0,8.0,34,0.00,MI,SKC,0.00,Misterhouse,2013-04-26 09:40:00,
2013-04-26 02:45:00,57.0,32.0,30.81,South,184,10.0,13.0,33,0.00,MI,SKC,0.00,Misterhouse,2013-04-26 09:45:00,
2013-04-26 02:50:00,57.2,32.0,30.81,SSW,203,9.0,10.0,33,0.00,MI,SKC,0.00,Misterhouse,2013-04-26 09:50:00,
2013-04-26 02:55:00,57.0,32.0,30.81,SSW,203,6.0,6.0,31,0.00,MI,SKC,0.00,Misterhouse,2013-04-26 09:55:00,
2013-04-26 03:05:00,57.0,32.0,30.81,SSW,211,10.0,11.0,32,0.00,MI,SKC,0.00,Misterhouse,2013-04-26 10:05:00,
2013-04-26 03:10:00,57.2,32.0,30.81,South,188,10.0,12.0,31,0.00,MI,SKC,0.00,Misterhouse,2013-04-26 10:10:00,
2013-04-26 03:15:00,57.4,32.0,30.81,South,175,9.0,9.0,31,0.00,MI,SKC,0.00,Misterhouse,2013-04-26 10:15:00,
2013-04-26 03:20:00,57.2,32.0,30.81,South,182,11.0,11.0,33,0.00,MI,SKC,0.00,Misterhouse,2013-04-26 10:20:00,
2013-04-26 03:25:00,57.0,32.0,30.81,SSW,203,9.0,11.0,34,0.00,MI,SKC,0.00,Misterhouse,2013-04-26 10:25:00,
2013-04-26 03:30:00,57.2,32.0,30.81,SSW,202,10.0,10.0,33,0.00,MI,SKC,0.00,Misterhouse,2013-04-26 10:30:00,
2013-04-26 03:35:00,57.0,32.0,30.81,South,184,11.0,13.0,33,0.00,MI,SKC,0.00,Misterhouse,2013-04-26 10:35:00,
2013-04-26 03:40:00,57.0,32.0,30.81,SSW,210,10.0,10.0,34,0.00,MI,SKC,0.00,Misterhouse,2013-04-26 10:40:00,
2013-04-26 03:45:00,56.8,32.0,30.81,SSW,204,10.0,15.0,34,0.00,MI,SKC,0.00,Misterhouse,2013-04-26 10:45:00,
2013-04-26 03:50:00,56.8,32.0,30.81,SSW,202,7.0,9.0,34,0.00,MI,SKC,0.00,Misterhouse,2013-04-26 10:50:00,
2013-04-26 03:55:00,56.8,32.0,30.81,SSW,196,7.0,8.0,35,0.00,MI,SKC,0.00,Misterhouse,2013-04-26 10:55:00,
2013-04-26 04:00:00,57.2,32.0,30.81,SW,217,10.0,13.0,33,0.00,MI,SKC,0.00,Misterhouse,2013-04-26 11:00:00,
2013-04-26 04:05:00,56.7,32.0,30.81,SW,220,8.0,8.0,35,0.00,MI,SKC,0.00,Misterhouse,2013-04-26 11:05:00,
2013-04-26 04:10:00,56.7,32.0,30.81,SSW,200,9.0,9.0,33,0.00,MI,SKC,0.00,Misterhouse,2013-04-26 11:10:00,
2013-04-26 04:20:00,56.5,32.0,30.81,SSW,207,8.0,8.0,32,0.00,MI,SKC,0.00,Misterhouse,2013-04-26 11:20:00,
2013-04-26 04:30:00,56.5,32.0,30.81,South,182,5.0,6.0,32,0.00,MI,SKC,0.00,Misterhouse,2013-04-26 11:30:00,
2013-04-26 04:50:00,55.9,32.0,30.81,SSW,194,0.0,0.0,30,0.00,MI,SKC,0.00,Misterhouse,2013-04-26 11:50:00,
2013-04-26 05:00:00,56.7,32.0,30.81,South,182,12.0,13.0,35,0.00,MI,SKC,0.00,Misterhouse,2013-04-26 12:00:00,
2013-04-26 05:15:00,56.8,32.0,30.81,SSW,206,8.0,8.0,33,0.00,MI,SKC,0.00,Misterhouse,2013-04-26 12:15:00,
2013-04-26 05:25:00,56.7,32.0,30.81,SW,217,5.0,9.0,33,0.00,MI,SKC,0.00,Misterhouse,2013-04-26 12:25:00,
2013-04-26 05:35:00,56.5,32.0,30.81,SSW,195,7.0,7.0,31,0.00,MI,SKC,0.00,Misterhouse,2013-04-26 12:35:00,
2013-04-26 05:40:00,56.5,32.0,30.81,West,265,4.0,4.0,31,0.00,MI,SKC,0.00,Misterhouse,2013-04-26 12:40:00,
2013-04-26 05:45:00,56.3,32.0,30.81,SSW,194,0.0,0.0,31,0.00,MI,SKC,0.00,Misterhouse,2013-04-26 12:45:00,
2013-04-26 05:55:00,55.4,32.0,30.81,SSW,194,0.0,0.0,31,0.00,MI,SKC,0.00,Misterhouse,2013-04-26 12:55:00,
2013-04-26 06:00:00,54.9,32.0,30.81,SSE,148,0.0,0.0,35,0.00,MI,SKC,0.00,Misterhouse,2013-04-26 13:00:00,
2013-04-26 06:10:00,54.1,32.0,30.81,SSE,147,0.0,0.0,37,0.00,MI,SKC,0.00,Misterhouse,2013-04-26 13:10:00,
2013-04-26 06:20:00,54.1,32.0,30.84,SSE,147,0.0,0.0,36,0.00,MI,SKC,0.00,Misterhouse,2013-04-26 13:20:00,
2013-04-26 06:30:00,54.7,32.0,30.84,ENE,58,2.0,0.0,35,0.00,MI,SKC,0.00,Misterhouse,2013-04-26 13:30:00,
2013-04-26 06:40:00,53.8,32.0,30.84,ENE,58,0.0,0.0,40,0.00,MI,SKC,0.00,Misterhouse,2013-04-26 13:40:00,
2013-04-26 06:45:00,53.8,32.0,30.84,ENE,58,0.0,0.0,39,0.00,MI,SKC,0.00,Misterhouse,2013-04-26 13:45:00,
2013-04-26 06:55:00,54.1,32.0,30.84,ENE,58,0.0,0.0,40,0.00,MI,SKC,0.00,Misterhouse,2013-04-26 13:55:00,
2013-04-26 07:00:00,54.3,32.0,30.84,ENE,58,0.0,0.0,39,0.00,MI,SKC,0.00,Misterhouse,2013-04-26 14:00:00,
2013-04-26 07:10:00,54.5,32.0,30.84,ENE,58,0.0,0.0,38,0.00,MI,SKC,0.00,Misterhouse,2013-04-26 14:10:00,
2013-04-26 07:15:00,54.9,32.0,30.84,ENE,58,0.0,0.0,38,0.00,MI,SKC,0.00,Misterhouse,2013-04-26 14:15:00,
2013-04-26 07:25:00,54.9,32.0,30.84,ENE,58,0.0,0.0,38,0.00,MI,SKC,0.00,Misterhouse,2013-04-26 14:25:00,
2013-04-26 07:30:00,55.0,32.0,30.84,ENE,58,0.0,0.0,38,0.00,MI,SKC,0.00,Misterhouse,2013-04-26 14:30:00,
2013-04-26 07:40:00,56.3,32.0,30.84,ENE,58,0.0,0.0,37,0.00,MI,SKC,0.00,Misterhouse,2013-04-26 14:40:00,
2013-04-26 07:45:00,57.2,32.0,30.84,ENE,58,0.0,0.0,36,0.00,MI,SKC,0.00,Misterhouse,2013-04-26 14:45:00,
2013-04-26 07:55:00,59.5,32.0,30.87,ENE,58,0.0,0.0,35,0.00,MI,SKC,0.00,Misterhouse,2013-04-26 14:55:00,
2013-04-26 08:00:00,60.4,32.0,30.87,ENE,58,0.0,0.0,31,0.00,MI,SKC,0.00,Misterhouse,2013-04-26 15:00:00,
2013-04-26 08:10:00,62.1,32.0,30.87,ENE,58,0.0,0.0,24,0.00,MI,SKC,0.00,Misterhouse,2013-04-26 15:10:00,
2013-04-26 08:15:00,62.4,32.0,30.87,ENE,58,0.0,0.0,21,0.00,MI,SKC,0.00,Misterhouse,2013-04-26 15:15:00,
2013-04-26 08:20:00,62.8,32.0,30.87,ENE,58,0.0,0.0,16,0.00,MI,SKC,0.00,Misterhouse,2013-04-26 15:20:00,
2013-04-26 08:25:00,63.5,32.0,30.87,ENE,58,0.0,0.0,13,0.00,MI,SKC,0.00,Misterhouse,2013-04-26 15:25:00,
2013-04-26 08:30:00,64.0,32.0,30.87,ENE,58,0.0,0.0,13,0.00,MI,SKC,0.00,Misterhouse,2013-04-26 15:30:00,
2013-04-26 08:35:00,64.6,32.0,30.87,ENE,58,0.0,0.0,13,0.00,MI,SKC,0.00,Misterhouse,2013-04-26 15:35:00,
2013-04-26 08:40:00,65.3,32.0,30.87,NNE,18,0.0,0.0,13,0.00,MI,SKC,0.00,Misterhouse,2013-04-26 15:40:00,
2013-04-26 08:45:00,65.3,32.0,30.87,NNE,18,0.0,0.0,13,0.00,MI,SKC,0.00,Misterhouse,2013-04-26 15:45:00,
2013-04-26 08:50:00,65.8,32.0,30.87,NNE,17,0.0,0.0,13,0.00,MI,SKC,0.00,Misterhouse,2013-04-26 15:50:00,
2013-04-26 08:55:00,66.4,32.0,30.87,NNW,345,0.0,0.0,12,0.00,MI,SKC,0.00,Misterhouse,2013-04-26 15:55:00,
2013-04-26 09:00:00,67.1,32.0,30.87,North,353,2.0,2.0,12,0.00,MI,SKC,0.00,Misterhouse,2013-04-26 16:00:00,
2013-04-26 09:10:00,67.5,32.0,30.87,NNW,334,0.0,0.0,12,0.00,MI,SKC,0.00,Misterhouse,2013-04-26 16:10:00,
2013-04-26 09:15:00,67.6,32.0,30.87,WNW,293,3.0,4.0,12,0.00,MI,SKC,0.00,Misterhouse,2013-04-26 16:15:00,
2013-04-26 09:20:00,67.8,32.0,30.87,NW,313,4.0,4.0,12,0.00,MI,SKC,0.00,Misterhouse,2013-04-26 16:20:00,
2013-04-26 09:25:00,68.2,32.0,30.87,NW,315,0.0,0.0,12,0.00,MI,SKC,0.00,Misterhouse,2013-04-26 16:25:00,
2013-04-26 09:30:00,68.7,32.0,30.87,NW,314,3.0,4.0,12,0.00,MI,SKC,0.00,Misterhouse,2013-04-26 16:30:00,
2013-04-26 09:35:00,69.4,32.0,30.87,WNW,288,0.0,0.0,12,0.00,MI,SKC,0.00,Misterhouse,2013-04-26 16:35:00,
2013-04-26 09:40:00,70.2,32.0,30.87,NW,315,4.0,4.0,12,0.00,MI,SKC,0.00,Misterhouse,2013-04-26 16:40:00,
2013-04-26 09:45:00,70.5,32.0,30.87,NW,316,4.0,6.0,12,0.00,MI,SKC,0.00,Misterhouse,2013-04-26 16:45:00,
2013-04-26 09:50:00,70.7,32.0,30.87,NW,317,4.0,4.0,9,0.00,MI,SKC,0.00,Misterhouse,2013-04-26 16:50:00,
2013-04-26 09:55:00,70.5,32.0,30.87,WNW,297,4.0,6.0,9,0.00,MI,SKC,0.00,Misterhouse,2013-04-26 16:55:00,
2013-04-26 10:00:00,70.3,32.0,30.87,WNW,293,4.0,5.0,9,0.00,MI,SKC,0.00,Misterhouse,2013-04-26 17:00:00,
2013-04-26 10:10:00,71.1,32.0,30.87,WNW,299,4.0,6.0,9,0.00,MI,SKC,0.00,Misterhouse,2013-04-26 17:10:00,
2013-04-26 10:20:00,71.4,32.0,30.87,NNW,343,4.0,5.0,9,0.00,MI,SKC,0.00,Misterhouse,2013-04-26 17:20:00,
2013-04-26 10:25:00,72.3,32.0,30.87,North,0,3.0,0.0,9,0.00,MI,SKC,0.00,Misterhouse,2013-04-26 17:25:00,
2013-04-26 10:30:00,72.9,32.0,30.87,NNW,332,4.0,6.0,9,0.00,MI,SKC,0.00,Misterhouse,2013-04-26 17:30:00,
2013-04-26 10:35:00,72.9,32.0,30.87,North,350,6.0,6.0,9,0.00,MI,SKC,0.00,Misterhouse,2013-04-26 17:35:00,
2013-04-26 10:40:00,73.2,32.0,30.87,WNW,298,5.0,5.0,9,0.00,MI,SKC,0.00,Misterhouse,2013-04-26 17:40:00,
2013-04-26 10:50:00,73.0,32.0,30.87,NNW,328,6.0,6.0,9,0.00,MI,SKC,0.00,Misterhouse,2013-04-26 17:50:00,
2013-04-26 10:55:00,73.4,32.0,30.87,NW,324,7.0,7.0,8,0.00,MI,SKC,0.00,Misterhouse,2013-04-26 17:55:00,
2013-04-26 11:00:00,73.8,32.0,30.87,WNW,297,6.0,6.0,8,0.00,MI,SKC,0.00,Misterhouse,2013-04-26 18:00:00,
2013-04-26 11:05:00,73.8,32.0,30.87,NNW,332,6.0,6.0,8,0.00,MI,SKC,0.00,Misterhouse,2013-04-26 18:05:00,
2013-04-26 11:10:00,73.9,32.0,30.87,ENE,73,4.0,4.0,8,0.00,MI,SKC,0.00,Misterhouse,2013-04-26 18:10:00,
2013-04-26 11:15:00,74.8,32.0,30.87,NNW,327,4.0,4.0,8,0.00,MI,SKC,0.00,Misterhouse,2013-04-26 18:15:00,
2013-04-26 11:20:00,75.7,32.0,30.87,NW,326,6.0,6.0,8,0.00,MI,SKC,0.00,Misterhouse,2013-04-26 18:20:00,
2013-04-26 11:25:00,75.6,32.0,30.90,North,353,5.0,0.0,8,0.00,MI,SKC,0.00,Misterhouse,2013-04-26 18:25:00,
2013-04-26 11:30:00,75.7,32.0,30.90,SSE,163,4.0,4.0,8,0.00,MI,SKC,0.00,Misterhouse,2013-04-26 18:30:00,
2013-04-26 11:40:00,76.6,32.0,30.90,NW,306,4.0,4.0,8,0.00,MI,SKC,0.00,Misterhouse,2013-04-26 18:40:00,
2013-04-26 11:45:00,77.5,32.0,30.90,NE,44,3.0,0.0,8,0.00,MI,SKC,0.00,Misterhouse,2013-04-26 18:45:00,
2013-04-26 11:50:00,77.5,32.0,30.90,SW,229,3.0,0.0,8,0.00,MI,SKC,0.00,Misterhouse,2013-04-26 18:50:00,
2013-04-26 11:55:00,77.4,32.0,30.87,NNW,331,5.0,6.0,8,0.00,MI,SKC,0.00,Misterhouse,2013-04-26 18:55:00,
2013-04-26 12:00:00,77.9,32.0,30.87,WSW,256,2.0,3.0,8,0.00,MI,SKC,0.00,Misterhouse,2013-04-26 19:00:00,
2013-04-26 12:10:00,79.5,32.0,30.87,North,0,5.0,7.0,10,0.00,MI,SKC,0.00,Misterhouse,2013-04-26 19:10:00,
2013-04-26 12:15:00,79.0,32.0,30.87,WNW,295,2.0,6.0,10,0.00,MI,SKC,0.00,Misterhouse,2013-04-26 19:15:00,
2013-04-26 12:20:00,78.4,32.0,30.87,NW,326,4.0,4.0,10,0.00,MI,SKC,0.00,Misterhouse,2013-04-26 19:20:00,
2013-04-26 12:25:00,79.0,32.0,30.87,NE,50,4.0,4.0,10,0.00,MI,SKC,0.00,Misterhouse,2013-04-26 19:25:00,
2013-04-26 12:30:00,78.8,32.0,30.87,West,266,4.0,4.0,10,0.00,MI,SKC,0.00,Misterhouse,2013-04-26 19:30:00,
2013-04-26 12:35:00,79.0,32.0,30.87,West,259,3.0,4.0,10,0.00,MI,SKC,0.00,Misterhouse,2013-04-26 19:35:00,
2013-04-26 12:40:00,79.0,32.0,30.87,North,1,4.0,4.0,10,0.00,MI,SKC,0.00,Misterhouse,2013-04-26 19:40:00,
2013-04-26 12:45:00,79.5,32.0,30.87,ENE,60,4.0,4.0,10,0.00,MI,SKC,0.00,Misterhouse,2013-04-26 19:45:00,
2013-04-26 12:50:00,80.2,32.0,30.87,SSW,202,5.0,5.0,10,0.00,MI,SKC,0.00,Misterhouse,2013-04-26 19:50:00,
2013-04-26 12:55:00,80.8,32.0,30.87,East,92,3.0,7.0,9,0.00,MI,SKC,0.00,Misterhouse,2013-04-26 19:55:00,
2013-04-26 13:00:00,79.5,32.0,30.87,SSE,160,4.0,4.0,10,0.00,MI,SKC,0.00,Misterhouse,2013-04-26 20:00:00,
2013-04-26 13:05:00,79.9,32.0,30.87,ESE,118,4.0,5.0,10,0.00,MI,SKC,0.00,Misterhouse,2013-04-26 20:05:00,
2013-04-26 13:10:00,80.4,32.0,30.87,NNE,30,5.0,8.0,10,0.00,MI,SKC,0.00,Misterhouse,2013-04-26 20:10:00,
2013-04-26 13:15:00,80.8,32.0,30.87,North,0,4.0,4.0,9,0.00,MI,SKC,0.00,Misterhouse,2013-04-26 20:15:00,
2013-04-26 13:20:00,80.4,32.0,30.87,NW,318,3.0,3.0,10,0.00,MI,SKC,0.00,Misterhouse,2013-04-26 20:20:00,
2013-04-26 13:25:00,81.0,32.0,30.87,ESE,121,3.0,4.0,9,0.00,MI,SKC,0.00,Misterhouse,2013-04-26 20:25:00,
2013-04-26 13:30:00,80.2,32.0,30.87,NW,320,4.0,9.0,10,0.00,MI,SKC,0.00,Misterhouse,2013-04-26 20:30:00,
2013-04-26 13:35:00,81.1,32.0,30.87,NNW,337,4.0,4.0,9,0.00,MI,SKC,0.00,Misterhouse,2013-04-26 20:35:00,
2013-04-26 13:40:00,81.1,32.0,30.87,WNW,288,7.0,8.0,9,0.00,MI,SKC,0.00,Misterhouse,2013-04-26 20:40:00,
2013-04-26 13:45:00,79.5,32.0,30.87,WNW,299,6.0,6.0,10,0.00,MI,SKC,0.00,Misterhouse,2013-04-26 20:45:00,
2013-04-26 13:50:00,78.8,32.0,30.87,NW,307,4.0,5.0,10,0.00,MI,SKC,0.00,Misterhouse,2013-04-26 20:50:00,
2013-04-26 13:55:00,81.0,32.0,30.87,NNW,345,4.0,4.0,9,0.00,MI,SKC,0.00,Misterhouse,2013-04-26 20:55:00,
2013-04-26 14:00:00,81.5,32.0,30.87,NNW,335,6.0,6.0,9,0.00,MI,SKC,0.00,Misterhouse,2013-04-26 21:00:00,
2013-04-26 14:05:00,82.0,32.0,30.87,NNW,343,5.0,5.0,9,0.00,MI,SKC,0.00,Misterhouse,2013-04-26 21:05:00,
2013-04-26 14:10:00,81.3,32.0,30.87,NE,42,3.0,4.0,9,0.00,MI,SKC,0.00,Misterhouse,2013-04-26 21:10:00,
2013-04-26 14:15:00,81.9,32.0,30.87,North,0,4.0,4.0,9,0.00,MI,SKC,0.00,Misterhouse,2013-04-26 21:15:00,
2013-04-26 14:20:00,80.8,32.0,30.87,WNW,288,4.0,6.0,9,0.00,MI,SKC,0.00,Misterhouse,2013-04-26 21:20:00,
2013-04-26 14:25:00,80.4,32.0,30.87,NNE,30,0.0,2.0,10,0.00,MI,SKC,0.00,Misterhouse,2013-04-26 21:25:00,
2013-04-26 14:30:00,80.2,32.0,30.87,WSW,258,4.0,6.0,10,0.00,MI,SKC,0.00,Misterhouse,2013-04-26 21:30:00,
2013-04-26 14:35:00,79.7,32.0,30.87,SSW,202,4.0,4.0,10,0.00,MI,SKC,0.00,Misterhouse,2013-04-26 21:35:00,
2013-04-26 14:40:00,80.2,32.0,30.87,West,260,3.0,5.0,10,0.00,MI,SKC,0.00,Misterhouse,2013-04-26 21:40:00,
2013-04-26 14:45:00,80.6,32.0,30.84,WNW,294,4.0,4.0,9,0.00,PR,BKN,0.00,Misterhouse,2013-04-26 21:45:00,
2013-04-26 14:50:00,80.8,32.0,30.84,WSW,248,3.0,6.0,9,0.00,PR,BKN,0.00,Misterhouse,2013-04-26 21:50:00,
2013-04-26 14:55:00,81.0,32.0,30.84,SSE,165,4.0,4.0,9,0.00,PR,BKN,0.00,Misterhouse,2013-04-26 21:55:00,
2013-04-26 15:00:00,81.5,32.0,30.84,West,281,4.0,4.0,9,0.00,PR,BKN,0.00,Misterhouse,2013-04-26 22:00:00,
2013-04-26 15:05:00,83.7,32.0,30.84,WNW,297,4.0,4.0,9,0.00,PR,BKN,0.00,Misterhouse,2013-04-26 22:05:00,
2013-04-26 15:10:00,83.5,32.0,30.84,WNW,290,0.0,0.0,9,0.00,PR,BKN,0.00,Misterhouse,2013-04-26 22:10:00,
2013-04-26 15:15:00,83.8,32.0,30.84,South,174,2.0,3.0,9,0.00,PR,BKN,0.00,Misterhouse,2013-04-26 22:15:00,
2013-04-26 15:20:00,83.1,32.0,30.84,North,353,8.0,8.0,9,0.00,PR,BKN,0.00,Misterhouse,2013-04-26 22:20:00,
2013-04-26 15:25:00,81.5,32.0,30.84,SSW,203,4.0,4.0,9,0.00,PR,BKN,0.00,Misterhouse,2013-04-26 22:25:00,
2013-04-26 15:30:00,79.5,32.0,30.84,South,185,8.0,13.0,10,0.00,PR,BKN,0.00,Misterhouse,2013-04-26 22:30:00,
2013-04-26 15:35:00,78.4,32.0,30.84,WSW,250,8.0,11.0,10,0.00,PR,BKN,0.00,Misterhouse,2013-04-26 22:35:00,
2013-04-26 15:40:00,77.5,32.0,30.84,SW,219,7.0,7.0,10,0.00,PR,BKN,0.00,Misterhouse,2013-04-26 22:40:00,
2013-04-26 15:45:00,78.3,32.0,30.84,WSW,251,10.0,10.0,10,0.00,PR,BKN,0.00,Misterhouse,2013-04-26 22:45:00,
2013-04-26 15:50:00,78.6,32.0,30.84,SSW,201,6.0,6.0,10,0.00,PR,BKN,0.00,Misterhouse,2013-04-26 22:50:00,
2013-04-26 15:55:00,77.9,32.0,30.84,SSW,201,9.0,11.0,10,0.00,PR,BKN,0.00,Misterhouse,2013-04-26 22:55:00,
2013-04-26 16:00:00,78.1,32.0,30.84,WSW,245,7.0,7.0,10,0.00,PR,BKN,0.00,Misterhouse,2013-04-26 23:00:00,
2013-04-26 16:05:00,77.5,32.0,30.84,SSE,168,11.0,11.0,10,0.00,PR,BKN,0.00,Misterhouse,2013-04-26 23:05:00,
2013-04-26 16:10:00,77.5,32.0,30.84,South,175,9.0,9.0,10,0.00,PR,BKN,0.00,Misterhouse,2013-04-26 23:10:00,
2013-04-26 16:15:00,77.2,32.0,30.84,SSW,213,11.0,11.0,10,0.00,PR,BKN,0.00,Misterhouse,2013-04-26 23:15:00,
2013-04-26 16:20:00,77.0,32.0,30.84,SSW,209,12.0,12.0,10,0.00,PR,BKN,0.00,Misterhouse,2013-04-26 23:20:00,
2013-04-26 16:25:00,76.3,32.0,30.84,SSW,210,10.0,10.0,10,0.00,PR,BKN,0.00,Misterhouse,2013-04-26 23:25:00,
2013-04-26 16:30:00,75.9,32.0,30.84,West,276,8.0,8.0,10,0.00,PR,BKN,0.00,Misterhouse,2013-04-26 23:30:00,
2013-04-26 16:35:00,76.6,32.0,30.84,SSW,196,10.0,11.0,10,0.00,PR,BKN,0.00,Misterhouse,2013-04-26 23:35:00,
2013-04-26 16:40:00,76.3,32.0,30.84,SSW,209,9.0,12.0,10,0.00,PR,BKN,0.00,Misterhouse,2013-04-26 23:40:00,
2013-04-26 16:45:00,75.6,32.0,30.84,SSW,195,9.0,9.0,10,0.00,PR,BKN,0.00,Misterhouse,2013-04-26 23:45:00,
2013-04-26 16:50:00,75.6,32.0,30.84,South,175,10.0,10.0,10,0.00,PR,BKN,0.00,Misterhouse,2013-04-26 23:50:00,
2013-04-26 17:05:00,75.2,32.0,30.84,WSW,251,10.0,10.0,10,0.00,PR,BKN,0.00,Misterhouse,2013-04-27 00:05:00,
2013-04-26 17:15:00,75.2,32.0,30.84,SW,220,8.0,8.0,10,0.00,PR,BKN,0.00,Misterhouse,2013-04-27 00:15:00,
2013-04-26 17:20:00,74.3,32.0,30.84,South,186,11.0,13.0,11,0.00,PR,BKN,0.00,Misterhouse,2013-04-27 00:20:00,
2013-04-26 17:30:00,73.4,32.0,30.84,SW,232,11.0,11.0,11,0.00,PR,BKN,0.00,Misterhouse,2013-04-27 00:30:00,
2013-04-26 17:35:00,73.6,32.0,30.84,SSW,193,13.0,13.0,11,0.00,PR,BKN,0.00,Misterhouse,2013-04-27 00:35:00,
2013-04-26 17:40:00,73.2,32.0,30.84,South,183,10.0,15.0,11,0.00,PR,BKN,0.00,Misterhouse,2013-04-27 00:40:00,
2013-04-26 17:50:00,72.5,32.0,30.84,SW,219,8.0,8.0,11,0.00,PR,BKN,0.00,Misterhouse,2013-04-27 00:50:00,
2013-04-26 17:55:00,72.3,32.0,30.84,WSW,257,11.0,11.0,11,0.00,PR,BKN,0.00,Misterhouse,2013-04-27 00:55:00,
2013-04-26 18:00:00,72.3,32.0,30.84,South,191,10.0,11.0,11,0.00,PR,BKN,0.00,Misterhouse,2013-04-27 01:00:00,
2013-04-26 18:10:00,71.6,32.0,30.84,WSW,251,10.0,10.0,11,0.00,PR,BKN,0.00,Misterhouse,2013-04-27 01:10:00,
2013-04-26 18:15:00,71.2,32.0,30.84,SSW,209,9.0,9.0,12,0.00,PR,BKN,0.00,Misterhouse,2013-04-27 01:15:00,
2013-04-26 18:20:00,71.1,32.0,30.84,SW,217,12.0,13.0,12,0.00,PR,BKN,0.00,Misterhouse,2013-04-27 01:20:00,
2013-04-26 18:25:00,70.5,32.0,30.84,SSW,213,9.0,12.0,12,0.00,PR,BKN,0.00,Misterhouse,2013-04-27 01:25:00,
2013-04-26 18:30:00,70.3,32.0,30.84,SSW,206,10.0,15.0,12,0.00,PR,BKN,0.00,Misterhouse,2013-04-27 01:30:00,
2013-04-26 18:35:00,69.8,32.0,30.84,SSW,196,8.0,11.0,12,0.00,PR,BKN,0.00,Misterhouse,2013-04-27 01:35:00,
2013-04-26 18:40:00,69.4,32.0,30.84,SSW,198,9.0,9.0,12,0.00,PR,BKN,0.00,Misterhouse,2013-04-27 01:40:00,
2013-04-26 18:45:00,69.3,32.0,30.84,SSW,211,9.0,10.0,12,0.00,PR,BKN,0.00,Misterhouse,2013-04-27 01:45:00,
2013-04-26 18:50:00,68.9,32.0,30.84,South,172,11.0,15.0,12,0.00,PR,BKN,0.00,Misterhouse,2013-04-27 01:50:00,
2013-04-26 18:55:00,68.7,32.0,30.84,SW,223,12.0,12.0,12,0.00,PR,BKN,0.00,Misterhouse,2013-04-27 01:55:00,
2013-04-26 19:00:00,68.2,32.0,30.84,South,176,13.0,15.0,12,0.00,PR,BKN,0.00,Misterhouse,2013-04-27 02:00:00,
2013-04-26 19:10:00,67.5,32.0,30.84,SSW,199,14.0,14.0,12,0.00,PR,BKN,0.00,Misterhouse,2013-04-27 02:10:00,
2013-04-26 19:15:00,66.9,32.0,30.84,South,183,11.0,12.0,15,0.00,PR,BKN,0.00,Misterhouse,2013-04-27 02:15:00,
2013-04-26 19:20:00,66.6,32.0,30.84,SW,222,14.0,15.0,15,0.00,PR,BKN,0.00,Misterhouse,2013-04-27 02:20:00,
2013-04-26 19:25:00,66.4,32.0,30.84,South,174,12.0,12.0,15,0.00,PR,BKN,0.00,Misterhouse,2013-04-27 02:25:00,
2013-04-26 19:30:00,66.2,32.0,30.84,SSW,194,11.0,11.0,12,0.00,PR,BKN,0.00,Misterhouse,2013-04-27 02:30:00,
2013-04-26 19:35:00,66.4,32.0,30.84,SW,217,13.0,13.0,12,0.00,PR,BKN,0.00,Misterhouse,2013-04-27 02:35:00,
2013-04-26 19:40:00,66.6,32.0,30.84,SSW,211,13.0,13.0,12,0.00,PR,BKN,0.00,Misterhouse,2013-04-27 02:40:00,
2013-04-26 19:45:00,66.6,32.0,30.84,SW,215,11.0,13.0,12,0.00,PR,BKN,0.00,Misterhouse,2013-04-27 02:45:00,
2013-04-26 19:50:00,66.7,32.0,30.84,SSW,203,15.0,15.0,10,0.00,PR,BKN,0.00,Misterhouse,2013-04-27 02:50:00,
2013-04-26 19:55:00,66.7,32.0,30.84,SSW,192,10.0,13.0,10,0.00,PR,BKN,0.00,Misterhouse,2013-04-27 02:55:00,
2013-04-26 20:00:00,66.9,32.0,30.84,SSW,202,13.0,17.0,10,0.00,PR,BKN,0.00,Misterhouse,2013-04-27 03:00:00,
2013-04-26 20:05:00,66.9,32.0,30.87,SSW,201,6.0,11.0,10,0.00,PR,BKN,0.00,Misterhouse,2013-04-27 03:05:00,
2013-04-26 20:10:00,67.5,32.0,30.87,SSW,193,13.0,13.0,10,0.00,PR,BKN,0.00,Misterhouse,2013-04-27 03:10:00,
2013-04-26 20:15:00,67.6,32.0,30.87,South,185,13.0,13.0,10,0.00,PR,BKN,0.00,Misterhouse,2013-04-27 03:15:00,
2013-04-26 20:20:00,67.6,32.0,30.87,SSW,213,10.0,10.0,10,0.00,PR,BKN,0.00,Misterhouse,2013-04-27 03:20:00,
2013-04-26 20:25:00,67.8,32.0,30.87,SSE,161,13.0,15.0,10,0.00,PR,BKN,0.00,Misterhouse,2013-04-27 03:25:00,
2013-04-26 20:30:00,68.0,32.0,30.87,SSW,197,8.0,12.0,10,0.00,PR,BKN,0.00,Misterhouse,2013-04-27 03:30:00,
2013-04-26 20:35:00,68.2,32.0,30.87,SSW,211,9.0,9.0,10,0.00,PR,BKN,0.00,Misterhouse,2013-04-27 03:35:00,
2013-04-26 20:40:00,68.0,32.0,30.87,SW,220,8.0,11.0,10,0.00,PR,BKN,0.00,Misterhouse,2013-04-27 03:40:00,
2013-04-26 20:45:00,68.0,32.0,30.87,SW,225,8.0,8.0,10,0.00,PR,BKN,0.00,Misterhouse,2013-04-27 03:45:00,
2013-04-26 20:50:00,67.6,32.0,30.87,WSW,248,6.0,10.0,10,0.00,PR,BKN,0.00,Misterhouse,2013-04-27 03:50:00,
2013-04-26 20:55:00,67.3,32.0,30.87,SW,216,7.0,8.0,10,0.00,PR,BKN,0.00,Misterhouse,2013-04-27 03:55:00,
2013-04-26 21:00:00,66.9,32.0,30.87,South,179,7.0,9.0,10,0.00,PR,BKN,0.00,Misterhouse,2013-04-27 04:00:00,
2013-04-26 21:05:00,63.3,32.0,30.90,SSW,205,5.0,8.0,23,0.00,MI,SKC,0.00,Misterhouse,2013-04-27 04:05:00,
2013-04-26 21:10:00,63.9,32.0,30.90,West,261,6.0,6.0,21,0.00,MI,SKC,0.00,Misterhouse,2013-04-27 04:10:00,
2013-04-26 21:15:00,64.0,32.0,30.90,SSW,205,5.0,6.0,21,0.00,MI,SKC,0.00,Misterhouse,2013-04-27 04:15:00,
2013-04-26 21:20:00,64.4,32.0,30.90,SSW,202,5.0,5.0,18,0.00,MI,SKC,0.00,Misterhouse,2013-04-27 04:20:00,
2013-04-26 21:25:00,64.4,32.0,30.90,SSW,204,4.0,4.0,15,0.00,MI,SKC,0.00,Misterhouse,2013-04-27 04:25:00,
2013-04-26 21:30:00,64.8,32.0,30.90,SSW,204,4.0,5.0,15,0.00,MI,SKC,0.00,Misterhouse,2013-04-27 04:30:00,
2013-04-26 21:35:00,65.1,32.0,30.90,SSW,212,4.0,4.0,13,0.00,MI,SKC,0.00,Misterhouse,2013-04-27 04:35:00,
2013-04-26 21:40:00,65.3,32.0,30.90,SSW,195,0.0,0.0,13,0.00,MI,SKC,0.00,Misterhouse,2013-04-27 04:40:00,
2013-04-26 21:45:00,64.9,32.0,30.90,WSW,248,4.0,4.0,13,0.00,MI,SKC,0.00,Misterhouse,2013-04-27 04:45:00,
2013-04-26 21:50:00,65.7,32.0,30.90,WSW,252,2.0,0.0,13,0.00,MI,SKC,0.00,Misterhouse,2013-04-27 04:50:00,
2013-04-26 21:55:00,65.1,32.0,30.90,SSW,205,4.0,4.0,10,0.00,MI,SKC,0.00,Misterhouse,2013-04-27 04:55:00,
2013-04-26 22:00:00,64.8,32.0,30.90,SSW,212,0.0,0.0,13,0.00,MI,SKC,0.00,Misterhouse,2013-04-27 05:00:00,
2013-04-26 22:05:00,63.3,32.0,30.90,SSW,212,0.0,0.0,13,0.00,MI,SKC,0.00,Misterhouse,2013-04-27 05:05:00,
2013-04-26 22:10:00,62.6,32.0,30.90,SSW,212,0.0,0.0,13,0.00,MI,SKC,0.00,Misterhouse,2013-04-27 05:10:00,
2013-04-26 22:15:00,62.6,32.0,30.90,WSW,252,0.0,0.0,11,0.00,MI,SKC,0.00,Misterhouse,2013-04-27 05:15:00,
2013-04-26 22:20:00,62.8,32.0,30.90,South,189,0.0,0.0,11,0.00,MI,SKC,0.00,Misterhouse,2013-04-27 05:20:00,
2013-04-26 22:25:00,63.1,32.0,30.90,South,189,0.0,0.0,11,0.00,MI,SKC,0.00,Misterhouse,2013-04-27 05:25:00,
2013-04-26 22:30:00,63.5,32.0,30.90,SSW,199,0.0,4.0,11,0.00,MI,SKC,0.00,Misterhouse,2013-04-27 05:30:00,
2013-04-26 22:35:00,65.1,32.0,30.90,South,190,6.0,6.0,10,0.00,MI,SKC,0.00,Misterhouse,2013-04-27 05:35:00,
2013-04-26 22:40:00,65.8,32.0,30.90,SSW,194,6.0,6.0,10,0.00,MI,SKC,0.00,Misterhouse,2013-04-27 05:40:00,
2013-04-26 22:45:00,66.0,32.0,30.90,SSW,205,6.0,6.0,10,0.00,MI,SKC,0.00,Misterhouse,2013-04-27 05:45:00,
2013-04-26 22:50:00,66.2,32.0,30.90,SSW,196,5.0,5.0,10,0.00,MI,SKC,0.00,Misterhouse,2013-04-27 05:50:00,
2013-04-26 22:55:00,66.0,32.0,30.90,WSW,240,4.0,4.0,10,0.00,MI,SKC,0.00,Misterhouse,2013-04-27 05:55:00,
2013-04-26 23:00:00,65.8,32.0,30.90,SSW,209,4.0,4.0,10,0.00,MI,SKC,0.00,Misterhouse,2013-04-27 06:00:00,
2013-04-26 23:05:00,66.0,32.0,30.90,SSW,196,6.0,8.0,10,0.00,MI,SKC,0.00,Misterhouse,2013-04-27 06:05:00,
2013-04-26 23:10:00,66.0,32.0,30.90,SSW,210,4.0,4.0,10,0.00,MI,SKC,0.00,Misterhouse,2013-04-27 06:10:00,
2013-04-26 23:15:00,65.8,32.0,30.90,SSW,198,5.0,5.0,10,0.00,MI,SKC,0.00,Misterhouse,2013-04-27 06:15:00,
2013-04-26 23:20:00,65.8,32.0,30.90,SSW,210,4.0,6.0,10,0.00,MI,SKC,0.00,Misterhouse,2013-04-27 06:20:00,
2013-04-26 23:25:00,65.8,32.0,30.90,South,182,3.0,5.0,10,0.00,MI,SKC,0.00,Misterhouse,2013-04-27 06:25:00,
2013-04-26 23:30:00,65.8,32.0,30.90,SSW,202,4.0,4.0,10,0.00,MI,SKC,0.00,Misterhouse,2013-04-27 06:30:00,
2013-04-26 23:35:00,65.5,32.0,30.90,SSW,209,3.0,5.0,10,0.00,MI,SKC,0.00,Misterhouse,2013-04-27 06:35:00,
2013-04-26 23:40:00,65.5,32.0,30.90,WSW,257,4.0,5.0,10,0.00,MI,SKC,0.00,Misterhouse,2013-04-27 06:40:00,
2013-04-26 23:45:00,65.3,32.0,30.90,SSW,201,5.0,6.0,10,0.00,MI,SKC,0.00,Misterhouse,2013-04-27 06:45:00,
2013-04-26 23:50:00,65.1,32.0,30.90,SSW,213,3.0,3.0,10,0.00,MI,SKC,0.00,Misterhouse,2013-04-27 06:50:00,
2013-04-26 23:55:00,65.3,32.0,30.90,SSW,197,3.0,4.0,10,0.00,MI,SKC,0.00,Misterhouse,2013-04-27 06:55:00,